createdAt,value
2023-01-11T00:02:48.228Z,63.10
2023-01-11T00:07:50.592Z,51.60
2023-01-11T00:13:01.299Z,54.30
2023-01-11T00:18:03.131Z,54.50
2023-01-11T00:23:04.903Z,50.30
2023-01-11T00:28:07.360Z,39.90
2023-01-11T00:33:10.924Z,39.70
2023-01-11T00:38:32.912Z,36.70
2023-01-11T00:43:53.185Z,34.90
2023-01-11T00:49:04.083Z,44.60
2023-01-11T00:54:05.829Z,64.10
2023-01-11T00:59:08.156Z,48.10
2023-01-11T01:04:10.949Z,37.90
2023-01-11T01:09:12.936Z,47.70
2023-01-11T01:14:30.863Z,54.30
2023-01-11T01:19:34.636Z,36.40
2023-01-11T01:24:36.739Z,40.40
2023-01-11T01:29:38.423Z,44.00
2023-01-11T01:34:40.348Z,66.80
2023-01-11T01:39:42.318Z,56.90
2023-01-11T01:45:12.750Z,45.10
2023-01-11T01:50:17.100Z,50.30
2023-01-11T01:55:35.056Z,41.60
2023-01-11T02:00:42.407Z,43.40
2023-01-11T02:05:44.959Z,63.40
2023-01-11T02:10:47.111Z,46.90
2023-01-11T02:16:07.871Z,42.60
2023-01-11T02:21:40.791Z,48.60
2023-01-11T02:26:51.707Z,41.50
2023-01-11T02:32:06.253Z,52.00
2023-01-11T02:37:28.683Z,40.40
2023-01-11T02:43:11.240Z,32.60
2023-01-11T02:48:30.664Z,37.40
2023-01-11T02:53:43.549Z,31.10
2023-01-11T02:58:48.181Z,51.70
2023-01-11T03:03:50.817Z,44.20
2023-01-11T03:09:19.121Z,34.40
2023-01-11T03:14:27.303Z,31.40
2023-01-11T03:19:46.638Z,42.20
2023-01-11T03:25:13.865Z,56.00
2023-01-11T03:30:21.421Z,49.40
2023-01-11T03:35:29.009Z,56.40
2023-01-11T03:40:36.273Z,53.70
2023-01-11T03:45:55.980Z,42.10
2023-01-11T03:51:01.734Z,56.70
2023-01-11T03:56:09.366Z,34.70
2023-01-11T04:01:12.539Z,34.90
2023-01-11T04:06:14.430Z,44.90
2023-01-11T04:11:16.154Z,35.30
2023-01-11T04:16:17.917Z,58.80
2023-01-11T04:21:19.767Z,46.50
2023-01-11T04:26:21.660Z,36.00
2023-01-11T04:31:23.515Z,33.20
2023-01-11T04:36:26.449Z,36.10
2023-01-11T04:41:46.725Z,57.00
2023-01-11T04:46:48.534Z,44.20
2023-01-11T04:51:50.229Z,60.90
2023-01-11T04:56:52.083Z,40.60
2023-01-11T05:01:54.020Z,47.40
2023-01-11T05:06:55.803Z,62.80
2023-01-11T05:11:57.459Z,47.70
2023-01-11T05:16:59.256Z,40.00
2023-01-11T05:22:00.955Z,39.10
2023-01-11T05:27:03.586Z,45.40
2023-01-11T05:32:05.815Z,66.50
2023-01-11T05:37:07.567Z,51.80
2023-01-11T05:42:09.344Z,52.90
2023-01-11T05:47:11.250Z,41.90
2023-01-11T05:52:13.133Z,46.30
2023-01-11T05:57:15.132Z,46.30
2023-01-11T06:02:16.972Z,52.50
2023-01-11T06:07:18.782Z,189.40
2023-01-11T06:12:20.605Z,53.10
2023-01-11T06:17:22.333Z,47.70
2023-01-11T06:22:24.042Z,84.90
2023-01-11T06:27:25.843Z,64.10
2023-01-11T06:32:29.784Z,55.00
2023-01-11T06:37:31.893Z,58.40
2023-01-11T06:42:33.560Z,58.70
2023-01-11T06:47:35.292Z,79.10
2023-01-11T06:52:36.939Z,54.20
2023-01-11T06:57:38.601Z,54.70
2023-01-11T07:02:40.313Z,60.70
2023-01-11T07:07:43.649Z,56.40
2023-01-11T07:12:45.619Z,92.30
2023-01-11T07:17:49.309Z,81.50
2023-01-11T07:22:51.568Z,69.80
2023-01-11T07:27:57.259Z,69.80
2023-01-11T07:32:59.653Z,105.10
2023-01-11T07:38:02.897Z,79.80
2023-01-11T07:43:18.820Z,65.70
2023-01-11T07:48:26.057Z,68.00
2023-01-11T07:53:27.732Z,53.70
2023-01-11T07:58:29.415Z,84.30
2023-01-11T08:03:31.400Z,63.60
2023-01-11T08:08:33.195Z,63.50
2023-01-11T08:13:53.740Z,66.70
2023-01-11T08:18:55.421Z,77.20
2023-01-11T08:23:58.796Z,70.60
2023-01-11T08:29:00.484Z,63.50
2023-01-11T08:34:02.171Z,54.40
2023-01-11T08:39:04.138Z,45.70
2023-01-11T08:44:08.735Z,52.80
2023-01-11T08:49:12.373Z,58.20
2023-01-11T08:54:14.553Z,64.90
2023-01-11T08:59:16.248Z,63.00
2023-01-11T09:04:24.804Z,47.10
2023-01-11T09:09:27.157Z,54.10
2023-01-11T09:14:29.307Z,53.10
2023-01-11T09:19:33.418Z,55.00
2023-01-11T09:24:35.178Z,47.40
2023-01-11T09:29:37.816Z,55.10
2023-01-11T09:34:41.219Z,56.90
2023-01-11T09:39:43.236Z,61.10
2023-01-11T09:44:56.722Z,54.40
2023-01-11T09:50:02.033Z,58.00
2023-01-11T09:55:05.427Z,96.70
2023-01-11T10:00:42.589Z,86.20
2023-01-11T10:06:02.766Z,60.40
2023-01-11T10:18:41.441Z,77.30
2023-01-11T10:22:33.730Z,60.00
2023-01-11T10:27:39.730Z,66.90
2023-01-11T10:32:54.312Z,36.70
2023-01-11T10:38:22.970Z,42.00
2023-01-11T10:43:28.933Z,25.00
2023-01-11T10:48:34.609Z,28.50
2023-01-11T10:53:49.972Z,26.00
2023-01-11T10:59:22.656Z,16.40
2023-01-11T11:05:00.599Z,17.20
2023-01-11T11:10:02.234Z,19.40
2023-01-11T11:15:21.710Z,18.80
2023-01-11T11:20:34.357Z,15.20
2023-01-11T11:25:43.328Z,18.60
2023-01-11T11:30:48.270Z,19.70
2023-01-11T11:36:04.966Z,17.40
2023-01-11T11:41:12.433Z,15.30
2023-01-11T11:46:18.817Z,16.00
2023-01-11T11:51:23.222Z,18.80
2023-01-11T11:56:28.925Z,15.10
2023-01-11T12:01:35.515Z,13.80
2023-01-11T12:06:38.089Z,11.60
2023-01-11T12:11:42.150Z,11.00
2023-01-11T12:16:45.798Z,12.20
2023-01-11T12:21:47.624Z,8.80
2023-01-11T12:27:04.543Z,14.60
2023-01-11T12:32:20.834Z,17.00
2023-01-11T12:37:47.295Z,12.80
2023-01-11T12:43:08.764Z,9.00
2023-01-11T12:48:38.558Z,8.50
2023-01-11T12:53:49.348Z,9.70
2023-01-11T12:59:29.436Z,6.90
2023-01-11T13:04:52.543Z,9.10
2023-01-11T13:15:34.642Z,9.90
2023-01-11T13:21:00.056Z,16.40
2023-01-11T13:26:19.727Z,13.30
2023-01-11T13:31:22.735Z,18.00
2023-01-11T13:36:30.704Z,18.80
2023-01-11T13:41:39.711Z,22.10
2023-01-11T13:47:02.506Z,16.20
2023-01-11T13:52:12.786Z,14.20
2023-01-11T13:57:27.223Z,18.10
2023-01-11T14:02:46.570Z,14.00
2023-01-11T14:08:19.511Z,16.20
2023-01-11T14:13:56.023Z,12.10
2023-01-11T14:19:06.063Z,16.50
2023-01-11T14:24:10.153Z,16.00
2023-01-11T14:29:30.599Z,18.10
2023-01-11T14:34:41.904Z,15.20
2023-01-11T14:40:02.066Z,13.40
2023-01-11T14:45:22.429Z,15.60
2023-01-11T14:50:45.779Z,12.10
2023-01-11T14:55:49.073Z,16.60
2023-01-11T15:00:53.554Z,18.70
2023-01-11T15:06:00.340Z,17.80
2023-01-11T15:11:22.777Z,17.90
2023-01-11T15:16:46.283Z,15.60
2023-01-11T15:21:50.337Z,15.10
2023-01-11T15:26:52.775Z,21.50
2023-01-11T15:31:54.875Z,24.20
2023-01-11T15:37:03.537Z,23.60
2023-01-11T15:42:31.839Z,29.30
2023-01-11T15:47:54.486Z,30.90
2023-01-11T15:53:06.866Z,34.40
2023-01-11T15:58:29.783Z,30.60
2023-01-11T16:03:54.151Z,32.20
2023-01-11T16:09:49.940Z,34.80
2023-01-11T16:15:12.892Z,30.70
2023-01-11T16:20:20.531Z,30.50
2023-01-11T16:25:25.303Z,35.80
2023-01-11T16:30:28.458Z,33.60
2023-01-11T16:35:30.170Z,38.90
2023-01-11T16:40:40.189Z,38.30
2023-01-11T16:45:44.659Z,36.60
2023-01-11T16:50:59.391Z,29.80
2023-01-11T16:56:15.778Z,30.50
2023-01-11T17:01:17.510Z,32.60
2023-01-11T17:06:24.551Z,32.90
2023-01-11T17:11:39.476Z,29.90
2023-01-11T17:16:45.236Z,37.30
2023-01-11T17:21:50.858Z,133.10
2023-01-11T17:26:58.806Z,42.20
2023-01-11T17:32:04.524Z,39.50
2023-01-11T17:37:11.152Z,42.80
2023-01-11T17:42:34.069Z,44.90
2023-01-11T17:47:42.766Z,44.30
2023-01-11T17:52:54.468Z,41.40
2023-01-11T17:58:14.121Z,36.20
2023-01-11T18:03:18.662Z,30.00
2023-01-11T18:08:22.579Z,30.10
2023-01-11T18:13:34.836Z,20.00
2023-01-11T18:18:47.150Z,24.30
2023-01-11T18:23:49.002Z,20.90
2023-01-11T18:28:51.318Z,21.30
2023-01-11T18:33:55.687Z,21.30
2023-01-11T18:38:57.606Z,23.40
2023-01-11T18:44:00.609Z,20.40
2023-01-11T18:49:02.301Z,21.90
2023-01-11T18:54:04.076Z,15.20
2023-01-11T18:59:06.356Z,13.10
2023-01-11T19:04:10.248Z,14.70
2023-01-11T19:09:12.163Z,13.70
2023-01-11T19:14:14.179Z,16.80
2023-01-11T19:19:16.255Z,13.20
2023-01-11T19:24:17.871Z,12.40
2023-01-11T19:29:20.396Z,9.70
2023-01-11T19:34:23.505Z,9.50
2023-01-11T19:39:26.102Z,10.60
2023-01-11T19:44:37.246Z,7.80
2023-01-11T19:49:40.101Z,14.70
2023-01-11T19:54:43.370Z,11.50
2023-01-11T19:59:45.062Z,12.90
2023-01-11T20:04:46.965Z,14.00
2023-01-11T20:09:49.131Z,13.40
2023-01-11T20:14:50.862Z,12.10
2023-01-11T20:19:54.849Z,14.90
2023-01-11T20:24:56.940Z,18.60
2023-01-11T20:29:58.672Z,17.30
2023-01-11T20:35:00.335Z,13.80
2023-01-11T20:40:02.105Z,12.00
2023-01-11T20:45:04.564Z,8.90
2023-01-11T20:50:07.371Z,12.30
2023-01-11T20:55:10.385Z,9.10
2023-01-11T21:00:13.838Z,10.10
2023-01-11T21:05:16.382Z,10.60
2023-01-11T21:10:18.564Z,10.30
2023-01-11T21:15:20.490Z,9.30
2023-01-11T21:20:22.432Z,9.30
2023-01-11T21:25:24.242Z,11.30
2023-01-11T21:30:25.879Z,10.10
2023-01-11T21:35:27.684Z,12.40
2023-01-11T21:40:30.120Z,12.40
2023-01-11T21:45:31.760Z,10.40
2023-01-11T21:50:33.510Z,9.30
2023-01-11T21:55:35.345Z,12.50
2023-01-11T22:00:37.036Z,10.90
2023-01-11T22:05:38.857Z,8.40
2023-01-11T22:10:40.583Z,8.90
2023-01-11T22:15:42.252Z,11.40
2023-01-11T22:20:44.007Z,11.30
2023-01-11T22:25:45.716Z,11.70
2023-01-11T22:30:49.053Z,10.10
2023-01-11T22:35:54.906Z,19.10
2023-01-11T22:41:00.308Z,20.10
2023-01-11T22:46:02.646Z,16.40
2023-01-11T22:51:11.617Z,14.80
2023-01-11T22:56:14.911Z,15.00
2023-01-11T23:01:27.768Z,14.20
2023-01-11T23:06:32.424Z,20.80
2023-01-11T23:11:56.587Z,15.90
2023-01-11T23:17:05.715Z,11.60
2023-01-11T23:22:09.007Z,12.60
2023-01-11T23:27:10.705Z,7.20
2023-01-11T23:32:12.455Z,10.70
2023-01-11T23:37:14.147Z,10.10
2023-01-11T23:42:27.985Z,14.50
2023-01-11T23:47:31.453Z,10.50
2023-01-11T23:52:33.118Z,11.00
2023-01-11T23:57:34.867Z,12.90
